sensor_id;sensor_type;location;lat;lon;timestamp;pressure;altitude;pressure_sealevel;temperature;humidity
73952;BME280;62304;47.662;18.324;2024-01-07T00:02:57;98930.22;;;7.25;100.00
73952;BME280;62304;47.662;18.324;2024-01-07T00:06:01;98929.44;;;7.28;100.00
73952;BME280;62304;47.662;18.324;2024-01-07T00:09:04;98918.03;;;7.26;100.00
73952;BME280;62304;47.662;18.324;2024-01-07T00:12:07;98918.44;;;7.32;100.00
73952;BME280;62304;47.662;18.324;2024-01-07T00:15:10;98913.31;;;7.30;100.00
73952;BME280;62304;47.662;18.324;2024-01-07T00:18:13;98916.53;;;7.43;100.00
73952;BME280;62304;47.662;18.324;2024-01-07T00:21:17;98918.16;;;7.44;100.00
73952;BME280;62304;47.662;18.324;2024-01-07T00:24:20;98912.97;;;7.35;100.00
73952;BME280;62304;47.662;18.324;2024-01-07T00:27:23;98907.47;;;7.35;100.00
73952;BME280;62304;47.662;18.324;2024-01-07T00:30:27;98908.53;;;7.24;100.00
73952;BME280;62304;47.662;18.324;2024-01-07T00:33:31;98910.09;;;7.21;100.00
73952;BME280;62304;47.662;18.324;2024-01-07T00:36:35;98902.63;;;7.22;100.00
73952;BME280;62304;47.662;18.324;2024-01-07T00:39:38;98908.53;;;7.20;100.00
73952;BME280;62304;47.662;18.324;2024-01-07T00:42:41;98916.41;;;7.18;100.00
73952;BME280;62304;47.662;18.324;2024-01-07T00:45:45;98919.19;;;7.22;100.00
73952;BME280;62304;47.662;18.324;2024-01-07T00:48:48;98917.63;;;7.24;100.00
73952;BME280;62304;47.662;18.324;2024-01-07T00:51:52;98922.66;;;7.15;100.00
73952;BME280;62304;47.662;18.324;2024-01-07T00:54:55;98914.38;;;7.12;100.00
73952;BME280;62304;47.662;18.324;2024-01-07T00:57:58;98916.31;;;7.11;100.00
73952;BME280;62304;47.662;18.324;2024-01-07T01:01:02;98915.06;;;7.02;100.00
73952;BME280;62304;47.662;18.324;2024-01-07T01:04:05;98921.41;;;7.06;100.00
73952;BME280;62304;47.662;18.324;2024-01-07T01:07:09;98915.78;;;6.95;100.00
73952;BME280;62304;47.662;18.324;2024-01-07T01:10:12;98912.28;;;6.98;100.00
73952;BME280;62304;47.662;18.324;2024-01-07T01:13:19;98920.06;;;6.89;100.00
73952;BME280;62304;47.662;18.324;2024-01-07T01:16:23;98927.66;;;7.03;100.00
73952;BME280;62304;47.662;18.324;2024-01-07T01:19:27;98920.56;;;7.02;100.00
73952;BME280;62304;47.662;18.324;2024-01-07T01:22:30;98929.00;;;7.19;100.00
73952;BME280;62304;47.662;18.324;2024-01-07T01:25:34;98919.09;;;7.15;100.00
73952;BME280;62304;47.662;18.324;2024-01-07T01:28:38;98926.50;;;7.04;100.00
73952;BME280;62304;47.662;18.324;2024-01-07T01:31:41;98923.78;;;7.07;100.00
73952;BME280;62304;47.662;18.324;2024-01-07T01:34:45;98921.38;;;7.02;100.00
73952;BME280;62304;47.662;18.324;2024-01-07T01:37:48;98921.06;;;7.11;100.00
73952;BME280;62304;47.662;18.324;2024-01-07T01:40:52;98919.16;;;7.18;100.00
73952;BME280;62304;47.662;18.324;2024-01-07T01:44:00;98914.47;;;7.26;100.00
73952;BME280;62304;47.662;18.324;2024-01-07T01:47:03;98916.09;;;7.30;100.00
73952;BME280;62304;47.662;18.324;2024-01-07T01:50:08;98912.53;;;7.33;100.00
73952;BME280;62304;47.662;18.324;2024-01-07T01:53:11;98909.78;;;7.30;100.00
73952;BME280;62304;47.662;18.324;2024-01-07T01:56:19;98908.66;;;7.38;100.00
73952;BME280;62304;47.662;18.324;2024-01-07T01:59:23;98901.94;;;7.35;100.00
73952;BME280;62304;47.662;18.324;2024-01-07T02:02:28;98904.72;;;7.39;100.00
73952;BME280;62304;47.662;18.324;2024-01-07T02:05:32;98900.00;;;7.43;100.00
73952;BME280;62304;47.662;18.324;2024-01-07T02:08:36;98909.06;;;7.40;100.00
73952;BME280;62304;47.662;18.324;2024-01-07T02:11:39;98913.41;;;7.41;100.00
73952;BME280;62304;47.662;18.324;2024-01-07T02:14:42;98906.38;;;7.54;100.00
73952;BME280;62304;47.662;18.324;2024-01-07T02:17:46;98907.50;;;7.42;100.00
73952;BME280;62304;47.662;18.324;2024-01-07T02:20:48;98900.44;;;7.48;100.00
73952;BME280;62304;47.662;18.324;2024-01-07T02:23:52;98902.38;;;7.44;100.00
73952;BME280;62304;47.662;18.324;2024-01-07T02:26:55;98907.50;;;7.42;100.00
73952;BME280;62304;47.662;18.324;2024-01-07T02:29:58;98906.62;;;7.31;100.00
73952;BME280;62304;47.662;18.324;2024-01-07T02:33:02;98897.16;;;7.29;100.00
73952;BME280;62304;47.662;18.324;2024-01-07T02:36:07;98902.72;;;7.36;100.00
73952;BME280;62304;47.662;18.324;2024-01-07T02:39:10;98896.44;;;7.35;100.00
73952;BME280;62304;47.662;18.324;2024-01-07T02:42:14;98901.19;;;7.42;100.00
73952;BME280;62304;47.662;18.324;2024-01-07T02:45:17;98900.38;;;7.38;100.00
73952;BME280;62304;47.662;18.324;2024-01-07T02:48:20;98896.44;;;7.39;100.00
73952;BME280;62304;47.662;18.324;2024-01-07T02:51:23;98896.06;;;7.40;100.00
73952;BME280;62304;47.662;18.324;2024-01-07T02:54:26;98901.25;;;7.49;100.00
73952;BME280;62304;47.662;18.324;2024-01-07T02:57:29;98897.63;;;7.38;100.00
73952;BME280;62304;47.662;18.324;2024-01-07T03:00:33;98892.94;;;7.45;100.00
73952;BME280;62304;47.662;18.324;2024-01-07T03:03:37;98898.78;;;7.37;100.00
73952;BME280;62304;47.662;18.324;2024-01-07T03:06:40;98896.50;;;7.49;100.00
73952;BME280;62304;47.662;18.324;2024-01-07T03:09:43;98890.59;;;7.51;100.00
73952;BME280;62304;47.662;18.324;2024-01-07T03:12:50;98883.44;;;7.39;100.00
73952;BME280;62304;47.662;18.324;2024-01-07T03:15:53;98889.38;;;7.41;100.00
73952;BME280;62304;47.662;18.324;2024-01-07T03:18:58;98882.31;;;7.47;100.00
73952;BME280;62304;47.662;18.324;2024-01-07T03:22:01;98881.84;;;7.35;100.00
73952;BME280;62304;47.662;18.324;2024-01-07T03:25:05;98887.03;;;7.47;100.00
73952;BME280;62304;47.662;18.324;2024-01-07T03:28:08;98885.84;;;7.44;100.00
73952;BME280;62304;47.662;18.324;2024-01-07T03:31:13;98879.19;;;7.52;100.00
73952;BME280;62304;47.662;18.324;2024-01-07T03:34:16;98889.44;;;7.52;100.00
73952;BME280;62304;47.662;18.324;2024-01-07T03:37:20;98890.56;;;7.40;100.00
73952;BME280;62304;47.662;18.324;2024-01-07T03:40:29;98887.03;;;7.50;100.00
73952;BME280;62304;47.662;18.324;2024-01-07T03:43:32;98892.56;;;7.50;100.00
73952;BME280;62304;47.662;18.324;2024-01-07T03:46:35;98884.25;;;7.43;100.00
73952;BME280;62304;47.662;18.324;2024-01-07T03:49:39;98882.72;;;7.49;100.00
73952;BME280;62304;47.662;18.324;2024-01-07T03:52:42;98885.09;;;7.54;100.00
73952;BME280;62304;47.662;18.324;2024-01-07T03:55:45;98890.22;;;7.52;100.00
73952;BME280;62304;47.662;18.324;2024-01-07T03:58:49;98898.53;;;7.59;100.00
73952;BME280;62304;47.662;18.324;2024-01-07T04:01:56;98887.38;;;7.38;100.00
73952;BME280;62304;47.662;18.324;2024-01-07T04:05:00;98889.41;;;7.45;100.00
73952;BME280;62304;47.662;18.324;2024-01-07T04:08:03;98881.97;;;7.56;100.00
73952;BME280;62304;47.662;18.324;2024-01-07T04:11:06;98873.22;;;7.47;100.00
73952;BME280;62304;47.662;18.324;2024-01-07T04:14:09;98893.72;;;7.42;100.00
73952;BME280;62304;47.662;18.324;2024-01-07T04:17:13;98888.56;;;7.41;100.00
73952;BME280;62304;47.662;18.324;2024-01-07T04:20:16;98892.53;;;7.43;100.00
73952;BME280;62304;47.662;18.324;2024-01-07T04:23:19;98885.06;;;7.47;100.00
73952;BME280;62304;47.662;18.324;2024-01-07T04:26:22;98889.75;;;7.40;100.00
73952;BME280;62304;47.662;18.324;2024-01-07T04:29:25;98889.78;;;7.47;100.00
73952;BME280;62304;47.662;18.324;2024-01-07T04:32:28;98891.31;;;7.41;100.00
73952;BME280;62304;47.662;18.324;2024-01-07T04:35:32;98890.50;;;7.37;100.00
73952;BME280;62304;47.662;18.324;2024-01-07T04:38:35;98894.53;;;7.46;100.00
73952;BME280;62304;47.662;18.324;2024-01-07T04:41:38;98882.63;;;7.35;100.00
73952;BME280;62304;47.662;18.324;2024-01-07T04:44:45;98891.69;;;7.36;100.00
73952;BME280;62304;47.662;18.324;2024-01-07T04:47:48;98897.56;;;7.31;100.00
73952;BME280;62304;47.662;18.324;2024-01-07T04:50:51;98903.53;;;7.36;100.00
73952;BME280;62304;47.662;18.324;2024-01-07T04:53:54;98895.22;;;7.29;100.00
73952;BME280;62304;47.662;18.324;2024-01-07T04:56:57;98899.19;;;7.35;100.00
73952;BME280;62304;47.662;18.324;2024-01-07T05:00:02;98902.34;;;7.37;100.00
73952;BME280;62304;47.662;18.324;2024-01-07T05:03:06;98905.09;;;7.37;100.00
73952;BME280;62304;47.662;18.324;2024-01-07T05:06:09;98903.91;;;7.38;100.00
73952;BME280;62304;47.662;18.324;2024-01-07T05:09:12;98898.81;;;7.40;100.00
73952;BME280;62304;47.662;18.324;2024-01-07T05:12:16;98905.50;;;7.39;100.00
73952;BME280;62304;47.662;18.324;2024-01-07T05:15:19;98904.75;;;7.42;100.00
73952;BME280;62304;47.662;18.324;2024-01-07T05:18:23;98910.28;;;7.46;100.00
73952;BME280;62304;47.662;18.324;2024-01-07T05:21:27;98909.09;;;7.47;100.00
73952;BME280;62304;47.662;18.324;2024-01-07T05:24:30;98909.00;;;7.29;100.00
73952;BME280;62304;47.662;18.324;2024-01-07T05:27:36;98913.53;;;7.08;100.00
73952;BME280;62304;47.662;18.324;2024-01-07T05:30:40;98916.50;;;6.85;100.00
73952;BME280;62304;47.662;18.324;2024-01-07T05:33:44;98905.75;;;6.73;100.00
73952;BME280;62304;47.662;18.324;2024-01-07T05:36:48;98905.31;;;6.68;100.00
73952;BME280;62304;47.662;18.324;2024-01-07T05:39:51;98912.69;;;6.57;100.00
73952;BME280;62304;47.662;18.324;2024-01-07T05:42:54;98919.22;;;6.45;100.00
73952;BME280;62304;47.662;18.324;2024-01-07T05:45:57;98917.53;;;6.30;100.00
73952;BME280;62304;47.662;18.324;2024-01-07T05:49:00;98925.66;;;6.23;100.00
73952;BME280;62304;47.662;18.324;2024-01-07T05:52:04;98929.19;;;6.20;100.00
73952;BME280;62304;47.662;18.324;2024-01-07T05:55:07;98926.78;;;6.15;100.00
73952;BME280;62304;47.662;18.324;2024-01-07T05:58:10;98924.78;;;6.16;100.00
73952;BME280;62304;47.662;18.324;2024-01-07T06:01:19;98930.62;;;6.11;100.00
73952;BME280;62304;47.662;18.324;2024-01-07T06:04:23;98930.56;;;6.04;100.00
73952;BME280;62304;47.662;18.324;2024-01-07T06:07:26;98935.22;;;6.00;100.00
73952;BME280;62304;47.662;18.324;2024-01-07T06:10:30;98935.22;;;6.00;100.00
73952;BME280;62304;47.662;18.324;2024-01-07T06:13:33;98924.84;;;5.86;100.00
73952;BME280;62304;47.662;18.324;2024-01-07T06:16:36;98944.31;;;5.78;100.00
73952;BME280;62304;47.662;18.324;2024-01-07T06:19:40;98936.22;;;5.85;100.00
73952;BME280;62304;47.662;18.324;2024-01-07T06:22:46;98940.13;;;5.84;100.00
73952;BME280;62304;47.662;18.324;2024-01-07T06:25:48;98933.72;;;5.76;100.00
73952;BME280;62304;47.662;18.324;2024-01-07T06:28:52;98943.44;;;5.70;100.00
73952;BME280;62304;47.662;18.324;2024-01-07T06:31:55;98952.91;;;5.73;100.00
73952;BME280;62304;47.662;18.324;2024-01-07T06:34:59;98950.09;;;5.69;100.00
73952;BME280;62304;47.662;18.324;2024-01-07T06:38:03;98953.06;;;5.57;100.00
73952;BME280;62304;47.662;18.324;2024-01-07T06:41:07;98952.03;;;5.65;100.00
73952;BME280;62304;47.662;18.324;2024-01-07T06:44:10;98965.59;;;5.55;100.00
73952;BME280;62304;47.662;18.324;2024-01-07T06:47:13;98959.16;;;5.44;100.00
73952;BME280;62304;47.662;18.324;2024-01-07T06:50:16;98956.78;;;5.42;100.00
73952;BME280;62304;47.662;18.324;2024-01-07T06:53:21;98968.19;;;5.44;100.00
73952;BME280;62304;47.662;18.324;2024-01-07T06:56:24;98961.00;;;5.36;100.00
73952;BME280;62304;47.662;18.324;2024-01-07T06:59:27;98965.44;;;5.44;100.00
73952;BME280;62304;47.662;18.324;2024-01-07T07:02:30;98965.66;;;5.32;100.00
73952;BME280;62304;47.662;18.324;2024-01-07T07:05:34;98967.56;;;5.28;100.00
73952;BME280;62304;47.662;18.324;2024-01-07T07:08:40;98981.28;;;5.28;100.00
73952;BME280;62304;47.662;18.324;2024-01-07T07:11:43;98980.88;;;5.26;100.00
73952;BME280;62304;47.662;18.324;2024-01-07T07:14:46;98982.72;;;5.19;100.00
73952;BME280;62304;47.662;18.324;2024-01-07T07:17:50;98981.03;;;5.14;100.00
73952;BME280;62304;47.662;18.324;2024-01-07T07:20:53;98992.69;;;5.04;100.00
73952;BME280;62304;47.662;18.324;2024-01-07T07:23:56;98997.41;;;5.07;100.00
73952;BME280;62304;47.662;18.324;2024-01-07T07:26:59;98993.34;;;4.98;100.00
73952;BME280;62304;47.662;18.324;2024-01-07T07:30:04;99005.91;;;4.99;100.00
73952;BME280;62304;47.662;18.324;2024-01-07T07:33:07;99004.25;;;4.94;100.00
73952;BME280;62304;47.662;18.324;2024-01-07T07:36:11;99001.81;;;4.89;100.00
73952;BME280;62304;47.662;18.324;2024-01-07T07:39:14;99004.88;;;4.84;100.00
73952;BME280;62304;47.662;18.324;2024-01-07T07:42:17;99013.47;;;4.83;100.00
73952;BME280;62304;47.662;18.324;2024-01-07T07:45:20;99020.84;;;4.79;100.00
73952;BME280;62304;47.662;18.324;2024-01-07T07:48:25;99008.19;;;4.74;100.00
73952;BME280;62304;47.662;18.324;2024-01-07T07:51:48;99018.81;;;4.76;100.00
73952;BME280;62304;47.662;18.324;2024-01-07T07:54:54;99020.69;;;4.72;100.00
73952;BME280;62304;47.662;18.324;2024-01-07T07:57:58;99024.63;;;4.71;100.00
73952;BME280;62304;47.662;18.324;2024-01-07T08:01:02;99024.19;;;4.69;100.00
73952;BME280;62304;47.662;18.324;2024-01-07T08:04:06;99026.94;;;4.69;100.00
73952;BME280;62304;47.662;18.324;2024-01-07T08:07:10;99028.41;;;4.63;100.00
73952;BME280;62304;47.662;18.324;2024-01-07T08:10:14;99040.03;;;4.56;100.00
73952;BME280;62304;47.662;18.324;2024-01-07T08:13:17;99036.28;;;4.45;100.00
73952;BME280;62304;47.662;18.324;2024-01-07T08:16:23;99042.31;;;4.35;100.00
73952;BME280;62304;47.662;18.324;2024-01-07T08:19:26;99044.66;;;4.33;100.00
73952;BME280;62304;47.662;18.324;2024-01-07T08:22:30;99045.28;;;4.27;100.00
73952;BME280;62304;47.662;18.324;2024-01-07T08:25:33;99057.06;;;4.27;100.00
73952;BME280;62304;47.662;18.324;2024-01-07T08:28:36;99060.94;;;4.26;100.00
73952;BME280;62304;47.662;18.324;2024-01-07T08:31:40;99061.59;;;4.20;100.00
73952;BME280;62304;47.662;18.324;2024-01-07T08:34:45;99075.81;;;4.25;100.00
73952;BME280;62304;47.662;18.324;2024-01-07T08:37:48;99071.69;;;4.16;100.00
73952;BME280;62304;47.662;18.324;2024-01-07T08:40:52;99067.66;;;4.10;100.00
73952;BME280;62304;47.662;18.324;2024-01-07T08:43:55;99079.78;;;4.09;100.00
73952;BME280;62304;47.662;18.324;2024-01-07T08:46:59;99078.22;;;3.92;100.00
73952;BME280;62304;47.662;18.324;2024-01-07T08:50:04;99082.72;;;4.00;100.00
73952;BME280;62304;47.662;18.324;2024-01-07T08:53:07;99088.03;;;3.93;100.00
73952;BME280;62304;47.662;18.324;2024-01-07T08:56:12;99092.19;;;3.87;100.00
73952;BME280;62304;47.662;18.324;2024-01-07T08:59:15;99100.53;;;3.75;100.00
73952;BME280;62304;47.662;18.324;2024-01-07T09:02:18;99099.84;;;3.78;100.00
73952;BME280;62304;47.662;18.324;2024-01-07T09:05:21;99109.28;;;3.65;100.00
73952;BME280;62304;47.662;18.324;2024-01-07T09:08:25;99118.25;;;3.62;100.00
73952;BME280;62304;47.662;18.324;2024-01-07T09:11:28;99116.47;;;3.54;100.00
73952;BME280;62304;47.662;18.324;2024-01-07T09:14:31;99128.06;;;3.48;100.00
73952;BME280;62304;47.662;18.324;2024-01-07T09:17:36;99130.41;;;3.34;100.00
73952;BME280;62304;47.662;18.324;2024-01-07T09:20:39;99126.78;;;3.30;100.00
73952;BME280;62304;47.662;18.324;2024-01-07T09:23:44;99125.44;;;3.24;100.00
73952;BME280;62304;47.662;18.324;2024-01-07T09:26:47;99130.50;;;3.22;100.00
73952;BME280;62304;47.662;18.324;2024-01-07T09:29:50;99134.28;;;3.17;100.00
73952;BME280;62304;47.662;18.324;2024-01-07T09:32:54;99137.91;;;3.21;100.00
73952;BME280;62304;47.662;18.324;2024-01-07T09:35:57;99133.41;;;3.13;100.00
73952;BME280;62304;47.662;18.324;2024-01-07T09:39:16;99130.09;;;3.08;100.00
73952;BME280;62304;47.662;18.324;2024-01-07T09:42:19;99137.19;;;3.09;100.00
73952;BME280;62304;47.662;18.324;2024-01-07T09:45:22;99125.00;;;3.06;100.00
73952;BME280;62304;47.662;18.324;2024-01-07T09:48:26;99134.00;;;3.07;100.00
73952;BME280;62304;47.662;18.324;2024-01-07T09:51:33;99137.19;;;3.09;100.00
73952;BME280;62304;47.662;18.324;2024-01-07T09:54:39;99133.00;;;2.99;100.00
73952;BME280;62304;47.662;18.324;2024-01-07T09:57:44;99138.72;;;2.94;100.00
73952;BME280;62304;47.662;18.324;2024-01-07T10:00:47;99142.06;;;2.88;100.00
73952;BME280;62304;47.662;18.324;2024-01-07T10:03:51;99139.00;;;2.89;100.00
73952;BME280;62304;47.662;18.324;2024-01-07T10:06:55;99142.19;;;2.91;100.00
73952;BME280;62304;47.662;18.324;2024-01-07T10:09:58;99135.97;;;2.94;100.00
73952;BME280;62304;47.662;18.324;2024-01-07T10:13:12;99141.75;;;2.89;100.00
73952;BME280;62304;47.662;18.324;2024-01-07T10:16:16;99134.66;;;2.88;100.00
73952;BME280;62304;47.662;18.324;2024-01-07T10:19:23;99130.56;;;2.82;100.00
73952;BME280;62304;47.662;18.324;2024-01-07T10:22:27;99137.19;;;2.81;100.00
73952;BME280;62304;47.662;18.324;2024-01-07T10:25:31;99130.22;;;2.84;100.00
73952;BME280;62304;47.662;18.324;2024-01-07T10:28:36;99127.28;;;2.77;100.00
73952;BME280;62304;47.662;18.324;2024-01-07T10:31:41;99133.53;;;2.77;100.00
73952;BME280;62304;47.662;18.324;2024-01-07T10:34:46;99140.97;;;2.77;100.00
73952;BME280;62304;47.662;18.324;2024-01-07T10:37:50;99138.88;;;2.86;100.00
73952;BME280;62304;47.662;18.324;2024-01-07T10:40:54;99133.97;;;2.91;100.00
73952;BME280;62304;47.662;18.324;2024-01-07T10:43:58;99132.44;;;2.78;100.00
73952;BME280;62304;47.662;18.324;2024-01-07T10:47:06;99137.19;;;2.81;100.00
73952;BME280;62304;47.662;18.324;2024-01-07T10:50:11;99135.41;;;2.73;100.00
73952;BME280;62304;47.662;18.324;2024-01-07T10:53:21;99130.28;;;2.72;100.00
73952;BME280;62304;47.662;18.324;2024-01-07T10:56:32;99138.72;;;2.67;100.00
73952;BME280;62304;47.662;18.324;2024-01-07T10:59:36;99134.06;;;2.67;100.00
73952;BME280;62304;47.662;18.324;2024-01-07T11:02:49;99133.34;;;2.70;100.00
73952;BME280;62304;47.662;18.324;2024-01-07T11:12:18;99125.28;;;2.62;100.00
73952;BME280;62304;47.662;18.324;2024-01-07T11:18:54;99132.00;;;2.64;100.00
73952;BME280;62304;47.662;18.324;2024-01-07T11:22:22;99138.78;;;2.55;100.00
73952;BME280;62304;47.662;18.324;2024-01-07T11:25:32;99132.37;;;2.51;100.00
73952;BME280;62304;47.662;18.324;2024-01-07T11:28:49;99142.75;;;2.57;100.00
73952;BME280;62304;47.662;18.324;2024-01-07T11:31:53;99144.16;;;2.51;100.00
73952;BME280;62304;47.662;18.324;2024-01-07T11:34:56;99142.78;;;2.45;100.00
73952;BME280;62304;47.662;18.324;2024-01-07T11:38:03;99143.34;;;2.51;100.00
73952;BME280;62304;47.662;18.324;2024-01-07T11:41:06;99132.59;;;2.58;100.00
73952;BME280;62304;47.662;18.324;2024-01-07T11:44:11;99145.25;;;2.62;100.00
73952;BME280;62304;47.662;18.324;2024-01-07T11:47:17;99148.44;;;2.64;100.00
73952;BME280;62304;47.662;18.324;2024-01-07T11:50:22;99149.03;;;2.46;100.00
73952;BME280;62304;47.662;18.324;2024-01-07T11:53:25;99145.31;;;2.38;100.00
73952;BME280;62304;47.662;18.324;2024-01-07T11:56:29;99138.47;;;2.32;100.00
73952;BME280;62304;47.662;18.324;2024-01-07T11:59:33;99137.69;;;2.32;100.00
73952;BME280;62304;47.662;18.324;2024-01-07T12:02:37;99145.78;;;2.40;100.00
73952;BME280;62304;47.662;18.324;2024-01-07T12:05:40;99146.78;;;2.36;100.00
73952;BME280;62304;47.662;18.324;2024-01-07T12:08:47;99143.28;;;2.35;100.00
73952;BME280;62304;47.662;18.324;2024-01-07T12:11:50;99146.47;;;2.25;100.00
73952;BME280;62304;47.662;18.324;2024-01-07T12:14:55;99146.03;;;2.23;100.00
73952;BME280;62304;47.662;18.324;2024-01-07T12:17:59;99151.03;;;2.21;100.00
73952;BME280;62304;47.662;18.324;2024-01-07T12:21:07;99150.78;;;2.26;100.00
73952;BME280;62304;47.662;18.324;2024-01-07T12:24:11;99154.47;;;2.18;100.00
73952;BME280;62304;47.662;18.324;2024-01-07T12:27:16;99165.16;;;2.11;100.00
73952;BME280;62304;47.662;18.324;2024-01-07T12:30:24;99160.41;;;2.08;100.00
73952;BME280;62304;47.662;18.324;2024-01-07T12:33:27;99159.03;;;2.02;100.00
73952;BME280;62304;47.662;18.324;2024-01-07T12:36:33;99163.81;;;1.93;100.00
73952;BME280;62304;47.662;18.324;2024-01-07T12:39:36;99168.25;;;1.86;100.00
73952;BME280;62304;47.662;18.324;2024-01-07T12:42:40;99166.34;;;1.86;100.00
73952;BME280;62304;47.662;18.324;2024-01-07T12:45:50;99170.87;;;1.94;100.00
73952;BME280;62304;47.662;18.324;2024-01-07T12:48:53;99179.31;;;1.89;100.00
73952;BME280;62304;47.662;18.324;2024-01-07T12:51:56;99177.16;;;1.83;100.00
73952;BME280;62304;47.662;18.324;2024-01-07T12:55:00;99180.00;;;1.86;100.00
73952;BME280;62304;47.662;18.324;2024-01-07T12:58:04;99177.25;;;1.74;100.00
73952;BME280;62304;47.662;18.324;2024-01-07T13:01:07;99192.84;;;1.74;100.00
73952;BME280;62304;47.662;18.324;2024-01-07T13:04:10;99208.22;;;1.66;100.00
73952;BME280;62304;47.662;18.324;2024-01-07T13:07:14;99209.69;;;1.64;100.00
73952;BME280;62304;47.662;18.324;2024-01-07T13:10:17;99207.44;;;1.66;100.00
73952;BME280;62304;47.662;18.324;2024-01-07T13:13:20;99208.91;;;1.63;100.00
73952;BME280;62304;47.662;18.324;2024-01-07T13:16:23;99209.34;;;1.53;100.00
73952;BME280;62304;47.662;18.324;2024-01-07T13:19:28;99215.94;;;1.52;100.00
73952;BME280;62304;47.662;18.324;2024-01-07T13:22:33;99223.22;;;1.48;100.00
73952;BME280;62304;47.662;18.324;2024-01-07T13:25:37;99229.56;;;1.40;100.00
73952;BME280;62304;47.662;18.324;2024-01-07T13:28:40;99225.69;;;1.41;100.00
73952;BME280;62304;47.662;18.324;2024-01-07T13:31:44;99217.19;;;1.22;100.00
73952;BME280;62304;47.662;18.324;2024-01-07T13:34:48;99229.31;;;1.33;100.00
73952;BME280;62304;47.662;18.324;2024-01-07T13:37:51;99235.44;;;1.30;100.00
73952;BME280;62304;47.662;18.324;2024-01-07T13:40:54;99237.16;;;1.35;100.00
73952;BME280;62304;47.662;18.324;2024-01-07T13:44:01;99242.31;;;1.36;100.00
73952;BME280;62304;47.662;18.324;2024-01-07T13:47:06;99237.69;;;1.28;100.00
73952;BME280;62304;47.662;18.324;2024-01-07T13:50:10;99254.78;;;1.25;100.00
73952;BME280;62304;47.662;18.324;2024-01-07T13:53:13;99265.91;;;1.20;100.00
73952;BME280;62304;47.662;18.324;2024-01-07T13:56:17;99254.66;;;1.22;100.00
73952;BME280;62304;47.662;18.324;2024-01-07T13:59:20;99260.91;;;1.22;100.00
73952;BME280;62304;47.662;18.324;2024-01-07T14:02:26;99258.38;;;1.17;100.00
73952;BME280;62304;47.662;18.324;2024-01-07T14:05:29;99253.72;;;1.18;100.00
73952;BME280;62304;47.662;18.324;2024-01-07T14:08:32;99264.31;;;1.19;100.00
73952;BME280;62304;47.662;18.324;2024-01-07T14:11:36;99261.56;;;1.19;100.00
73952;BME280;62304;47.662;18.324;2024-01-07T14:14:39;99265.44;;;1.18;100.00
73952;BME280;62304;47.662;18.324;2024-01-07T14:17:44;99268.72;;;1.12;100.00
73952;BME280;62304;47.662;18.324;2024-01-07T14:20:48;99267.25;;;1.14;100.00
73952;BME280;62304;47.662;18.324;2024-01-07T14:23:51;99268.38;;;1.13;100.00
73952;BME280;62304;47.662;18.324;2024-01-07T14:26:54;99272.91;;;1.09;100.00
73952;BME280;62304;47.662;18.324;2024-01-07T14:30:01;99277.22;;;1.10;100.00
73952;BME280;62304;47.662;18.324;2024-01-07T14:33:07;99278.50;;;1.13;100.00
73952;BME280;62304;47.662;18.324;2024-01-07T14:36:10;99285.41;;;1.10;100.00
73952;BME280;62304;47.662;18.324;2024-01-07T14:39:19;99272.44;;;1.07;100.00
73952;BME280;62304;47.662;18.324;2024-01-07T14:42:24;99276.84;;;1.00;100.00
73952;BME280;62304;47.662;18.324;2024-01-07T14:45:27;99282.81;;;0.93;100.00
73952;BME280;62304;47.662;18.324;2024-01-07T14:48:30;99292.03;;;0.89;100.00
73952;BME280;62304;47.662;18.324;2024-01-07T14:51:33;99288.66;;;0.83;100.00
73952;BME280;62304;47.662;18.324;2024-01-07T14:54:37;99292.72;;;0.77;100.00
73952;BME280;62304;47.662;18.324;2024-01-07T14:57:40;99292.53;;;0.82;100.00
73952;BME280;62304;47.662;18.324;2024-01-07T15:00:44;99296.28;;;0.78;100.00
73952;BME280;62304;47.662;18.324;2024-01-07T15:03:47;99300.91;;;0.77;100.00
73952;BME280;62304;47.662;18.324;2024-01-07T15:06:52;99290.88;;;0.69;100.00
73952;BME280;62304;47.662;18.324;2024-01-07T15:09:55;99298.38;;;0.72;100.00
73952;BME280;62304;47.662;18.324;2024-01-07T15:12:59;99305.78;;;0.72;100.00
73952;BME280;62304;47.662;18.324;2024-01-07T15:16:12;99308.84;;;0.70;100.00
73952;BME280;62304;47.662;18.324;2024-01-07T15:19:15;99307.56;;;0.68;100.00
73952;BME280;62304;47.662;18.324;2024-01-07T15:22:19;99300.87;;;0.57;100.00
73952;BME280;62304;47.662;18.324;2024-01-07T15:25:22;99315.94;;;0.63;100.00
73952;BME280;62304;47.662;18.324;2024-01-07T15:28:25;99312.12;;;0.55;100.00
73952;BME280;62304;47.662;18.324;2024-01-07T15:31:31;99325.41;;;0.65;99.79
73952;BME280;62304;47.662;18.324;2024-01-07T15:34:34;99329.22;;;0.73;99.78
73952;BME280;62304;47.662;18.324;2024-01-07T15:37:39;99332.25;;;0.71;99.85
73952;BME280;62304;47.662;18.324;2024-01-07T15:40:43;99337.31;;;0.61;99.65
73952;BME280;62304;47.662;18.324;2024-01-07T15:43:47;99340.03;;;0.61;99.34
73952;BME280;62304;47.662;18.324;2024-01-07T15:46:50;99352.22;;;0.55;98.51
73952;BME280;62304;47.662;18.324;2024-01-07T15:49:54;99347.50;;;0.43;98.75
73952;BME280;62304;47.662;18.324;2024-01-07T15:52:56;99362.53;;;0.49;98.26
73952;BME280;62304;47.662;18.324;2024-01-07T15:56:02;99363.19;;;0.46;98.49
73952;BME280;62304;47.662;18.324;2024-01-07T15:59:05;99362.09;;;0.47;97.97
73952;BME280;62304;47.662;18.324;2024-01-07T16:02:12;99357.59;;;0.43;97.90
73952;BME280;62304;47.662;18.324;2024-01-07T16:05:17;99362.91;;;0.39;97.21
73952;BME280;62304;47.662;18.324;2024-01-07T16:08:21;99361.78;;;0.40;97.46
73952;BME280;62304;47.662;18.324;2024-01-07T16:11:25;99359.03;;;0.40;97.32
73952;BME280;62304;47.662;18.324;2024-01-07T16:14:28;99350.41;;;0.38;97.32